Time;durP1;ratioP1;P1;durP2;ratioP2;P2;SDS_P1;SDS_P2;PMS_P1;PMS_P2;Temp;Humidity;BMP_temperature;BMP_pressure;BME280_temperature;BME280_humidity;BME280_pressure;Samples;Min_cycle;Max_cycle;Signal;HPM_P1;HPM_P2
2022/04/20 00:01:47;;;;;;;7.77;7.20;;;;;;;5.76;91.02;99408.25;5051527;28;20188;-66
2022/04/20 00:04:15;;;;;;;6.80;6.37;;;;;;;5.73;90.60;99411.22;5051891;28;20201;-66
2022/04/20 00:06:42;;;;;;;6.63;6.23;;;;;;;5.68;90.42;99410.09;5051528;28;20669;-66
2022/04/20 00:09:09;;;;;;;7.30;6.73;;;;;;;5.66;90.56;99415.53;5051926;28;20550;-66
2022/04/20 00:11:35;;;;;;;7.23;6.83;;;;;;;5.62;90.68;99414.22;5051470;28;20192;-66
2022/04/20 00:14:02;;;;;;;7.07;6.47;;;;;;;5.59;90.24;99414.53;5051735;28;20255;-66
2022/04/20 00:16:29;;;;;;;7.40;6.80;;;;;;;5.61;90.61;99409.91;5052035;28;20229;-66
2022/04/20 00:18:56;;;;;;;6.70;6.30;;;;;;;5.63;89.98;99413.22;5053179;28;20649;-66
2022/04/20 00:21:24;;;;;;;7.37;6.87;;;;;;;5.59;90.38;99417.16;5055503;28;20255;-66
2022/04/20 00:23:50;;;;;;;6.87;6.47;;;;;;;5.49;90.85;99413.06;5055519;28;20197;-66
2022/04/20 00:26:17;;;;;;;6.27;5.97;;;;;;;5.40;90.21;99416.69;5055158;28;20280;-66
2022/04/20 00:28:44;;;;;;;6.43;5.93;;;;;;;5.32;91.63;99416.69;5055173;28;20192;-66
2022/04/20 00:31:10;;;;;;;7.13;6.73;;;;;;;5.27;91.48;99426.91;5055056;28;20748;-66
2022/04/20 00:33:37;;;;;;;7.33;6.63;;;;;;;5.19;91.25;99422.44;5055027;28;20657;-66
2022/04/20 00:36:04;;;;;;;8.13;7.47;;;;;;;5.09;92.54;99421.78;5055262;28;20197;-66
2022/04/20 00:38:33;;;;;;;7.00;6.60;;;;;;;5.07;93.75;99422.94;5055446;28;20269;-66
2022/04/20 00:41:00;;;;;;;7.40;6.87;;;;;;;5.06;93.55;99427.34;5054825;28;20250;-66
2022/04/20 00:43:28;;;;;;;8.43;7.70;;;;;;;5.13;92.79;99432.78;5054828;28;20243;-66
2022/04/20 00:45:56;;;;;;;7.97;7.37;;;;;;;5.14;92.88;99423.91;5054849;28;20197;-66
2022/04/20 00:48:23;;;;;;;7.93;7.10;;;;;;;5.09;92.04;99427.03;5055318;28;20196;-66
2022/04/20 00:50:50;;;;;;;7.50;7.00;;;;;;;5.11;92.10;99414.53;5054703;28;20192;-66
2022/04/20 00:53:17;;;;;;;7.70;7.10;;;;;;;5.15;92.35;99421.13;5054647;28;20665;-66
2022/04/20 00:55:45;;;;;;;7.37;6.83;;;;;;;5.12;92.37;99410.94;5054933;28;20254;-66
2022/04/20 00:58:13;;;;;;;7.37;6.77;;;;;;;5.09;92.75;99429.69;5054766;28;20220;-66
2022/04/20 01:00:40;;;;;;;7.57;7.10;;;;;;;5.08;92.45;99420.16;5054492;28;20756;-66
2022/04/20 01:03:07;;;;;;;7.50;6.90;;;;;;;5.12;92.36;99410.94;5055291;28;20192;-66
2022/04/20 01:05:34;;;;;;;7.10;6.57;;;;;;;5.13;92.40;99420.47;5054735;28;20322;-67
2022/04/20 01:08:00;;;;;;;8.00;7.33;;;;;;;5.14;92.75;99426.53;5055494;28;20258;-66
2022/04/20 01:10:27;;;;;;;6.87;6.43;;;;;;;5.14;92.60;99423.91;5054879;28;20232;-66
2022/04/20 01:12:55;;;;;;;7.10;6.70;;;;;;;5.14;92.45;99430.00;5054793;28;20193;-66
2022/04/20 01:15:22;;;;;;;7.07;6.57;;;;;;;5.16;92.47;99433.28;5054724;28;20278;-66
2022/04/20 01:17:49;;;;;;;6.93;6.47;;;;;;;5.16;92.35;99428.03;5054410;28;20317;-66
2022/04/20 01:20:17;;;;;;;7.67;6.97;;;;;;;5.15;92.35;99425.56;5054419;28;20193;-66
2022/04/20 01:22:46;;;;;;;8.87;8.07;;;;;;;5.09;92.01;99426.22;5054706;28;20201;-66
2022/04/20 01:25:13;;;;;;;9.27;8.17;;;;;;;5.03;92.12;99419.78;5054394;28;20246;-66
2022/04/20 01:27:40;;;;;;;11.30;8.33;;;;;;;5.05;92.87;99423.09;5054276;28;20280;-66
2022/04/20 01:30:09;;;;;;;9.37;8.40;;;;;;;5.02;92.09;99419.94;5053213;28;20192;-66
2022/04/20 01:32:35;;;;;;;12.40;8.57;;;;;;;4.94;91.96;99407.59;5055010;28;20621;-66
2022/04/20 01:35:02;;;;;;;9.57;8.47;;;;;;;4.91;92.33;99407.13;5053867;28;20196;-67
2022/04/20 01:37:30;;;;;;;9.37;7.87;;;;;;;4.82;92.90;99393.13;5053752;28;20251;-67
2022/04/20 01:39:58;;;;;;;20.93;9.40;;;;;;;4.92;92.03;99412.22;5054347;28;20197;-67
2022/04/20 01:42:25;;;;;;;12.10;8.73;;;;;;;4.89;91.96;99414.34;5053922;28;20192;-67
2022/04/20 01:44:51;;;;;;;12.43;8.40;;;;;;;4.82;93.34;99408.91;5054507;28;20192;-67
2022/04/20 01:47:18;;;;;;;10.40;8.23;;;;;;;4.83;93.37;99410.53;5054773;28;20200;-67
2022/04/20 01:49:45;;;;;;;10.40;9.20;;;;;;;4.82;92.83;99411.53;5053943;28;20193;-67
2022/04/20 01:52:12;;;;;;;8.17;7.30;;;;;;;4.80;93.06;99410.06;5053517;28;20250;-67
2022/04/20 01:54:38;;;;;;;11.27;8.43;;;;;;;4.70;92.98;99410.19;5053506;28;20196;-66
2022/04/20 01:57:06;;;;;;;9.80;8.90;;;;;;;4.75;93.99;99407.09;5053404;28;20782;-67
2022/04/20 01:59:33;;;;;;;9.63;7.90;;;;;;;4.74;93.90;99411.50;5053729;28;20201;-67
2022/04/20 02:04:44;;;;;;;12.03;9.57;;;;;;;4.78;92.15;99404.13;5054279;28;20222;-67
2022/04/20 02:07:10;;;;;;;9.30;8.10;;;;;;;4.71;92.28;99400.50;5053247;28;20196;-67
2022/04/20 02:09:38;;;;;;;8.07;7.17;;;;;;;4.53;92.49;99391.88;5053128;28;20229;-67
2022/04/20 02:12:07;;;;;;;7.50;6.90;;;;;;;4.51;92.66;99402.59;5053182;28;20715;-66
2022/04/20 02:14:34;;;;;;;8.73;7.97;;;;;;;4.55;93.08;99405.72;5052891;28;20196;-67
2022/04/20 02:17:01;;;;;;;10.10;9.10;;;;;;;4.55;93.28;99406.56;5053853;28;20263;-67
2022/04/20 02:19:28;;;;;;;10.57;9.47;;;;;;;4.53;93.73;99400.63;5053645;28;20275;-67
2022/04/20 02:21:54;;;;;;;9.97;9.13;;;;;;;4.55;93.08;99401.28;5052983;28;20228;-67
2022/04/20 02:24:21;;;;;;;9.27;8.43;;;;;;;4.49;92.59;99401.91;5052683;28;20192;-67
2022/04/20 02:26:48;;;;;;;10.40;9.60;;;;;;;4.42;93.34;99408.78;5052911;28;20619;-67
2022/04/20 02:29:16;;;;;;;10.67;9.37;;;;;;;4.39;92.87;99411.75;5053153;28;20286;-67
2022/04/20 02:31:42;;;;;;;9.13;8.43;;;;;;;4.26;93.40;99411.38;5052821;28;20653;-67
2022/04/20 02:34:09;;;;;;;20.37;10.00;;;;;;;4.18;93.04;99421.84;5053904;28;20242;-67
2022/04/20 02:36:36;;;;;;;11.00;10.10;;;;;;;4.08;93.79;99418.50;5053022;28;20249;-67
2022/04/20 02:39:04;;;;;;;20.70;11.30;;;;;;;4.01;94.38;99412.22;5052526;28;20220;-67
2022/04/20 02:41:31;;;;;;;13.47;10.20;;;;;;;4.00;94.11;99415.84;5053045;28;20195;-67
2022/04/20 02:43:58;;;;;;;11.77;10.53;;;;;;;3.93;94.23;99414.00;5052848;28;20192;-67
2022/04/20 02:46:27;;;;;;;13.97;12.17;;;;;;;3.82;96.34;99419.50;5052548;28;20254;-66
2022/04/20 02:48:53;;;;;;;14.30;11.53;;;;;;;3.83;95.97;99419.34;5052407;28;20674;-67
2022/04/20 02:51:20;;;;;;;17.67;11.80;;;;;;;3.89;96.74;99418.72;5052741;28;20431;-67
2022/04/20 02:53:47;;;;;;;17.90;12.20;;;;;;;3.96;95.69;99418.94;5052326;28;20196;-66
2022/04/20 02:56:14;;;;;;;18.27;13.40;;;;;;;4.02;95.41;99424.41;5052697;28;20192;-67
2022/04/20 02:58:41;;;;;;;13.33;12.10;;;;;;;4.05;94.55;99428.53;5052206;28;20262;-67
2022/04/20 03:01:07;;;;;;;15.80;12.07;;;;;;;4.04;93.85;99426.88;5052223;28;20758;-67
2022/04/20 03:03:35;;;;;;;14.63;11.70;;;;;;;3.99;94.59;99432.59;5053060;28;20189;-67
2022/04/20 03:06:02;;;;;;;15.77;12.23;;;;;;;3.95;94.95;99439.13;5052176;28;20492;-66
2022/04/20 03:08:29;;;;;;;18.63;13.00;;;;;;;3.86;94.51;99428.72;5052455;28;20200;-67
2022/04/20 03:10:56;;;;;;;18.13;14.13;;;;;;;3.78;95.01;99432.13;5052385;28;20878;-67
2022/04/20 03:13:23;;;;;;;24.00;15.60;;;;;;;3.87;97.11;99433.00;5052320;28;20201;-67
2022/04/20 03:15:50;;;;;;;24.43;17.10;;;;;;;3.93;96.73;99443.69;5052434;28;20282;-66
2022/04/20 03:18:17;;;;;;;30.63;18.27;;;;;;;3.98;96.24;99438.84;5051821;28;20477;-67
2022/04/20 03:20:45;;;;;;;44.40;21.10;;;;;;;4.04;95.22;99437.38;5052133;28;20670;-67
2022/04/20 03:23:12;;;;;;;35.97;19.67;;;;;;;4.02;94.13;99440.16;5053032;28;20192;-67
2022/04/20 03:25:41;;;;;;;29.77;19.43;;;;;;;3.96;94.09;99440.78;5052196;28;20199;-66
2022/04/20 03:28:08;;;;;;;32.43;21.77;;;;;;;3.95;94.22;99443.56;5052425;28;20200;-66
2022/04/20 03:30:38;;;;;;;24.60;20.40;;;;;;;3.96;93.90;99446.03;5052004;28;20572;-66
2022/04/20 03:33:08;;;;;;;36.53;24.83;;;;;;;3.94;94.24;99442.75;5052413;28;20443;-66
2022/04/20 03:35:36;;;;;;;41.23;25.67;;;;;;;3.95;95.39;99446.19;5051833;28;20677;-67
2022/04/20 03:38:04;;;;;;;35.73;23.10;;;;;;;3.88;95.72;99448.59;5051598;28;20697;-67
2022/04/20 03:40:31;;;;;;;37.30;23.73;;;;;;;3.78;96.08;99447.91;5051682;28;20197;-66
2022/04/20 03:42:57;;;;;;;37.00;23.67;;;;;;;3.76;97.90;99455.09;5051638;28;20201;-67
2022/04/20 03:45:24;;;;;;;35.90;23.20;;;;;;;3.84;99.09;99456.97;5051671;28;20196;-66
2022/04/20 03:47:51;;;;;;;33.57;22.13;;;;;;;3.98;99.19;99459.00;5052455;28;20204;-66
2022/04/20 03:50:18;;;;;;;27.77;19.90;;;;;;;4.05;98.78;99455.59;5052392;28;20196;-66
2022/04/20 03:52:45;;;;;;;43.27;23.17;;;;;;;4.07;97.69;99458.06;5051661;28;20665;-66
2022/04/20 03:55:13;;;;;;;37.00;22.00;;;;;;;4.11;97.63;99455.00;5055624;28;20254;-66
2022/04/20 03:57:39;;;;;;;41.47;23.27;;;;;;;4.27;98.22;99454.25;5056316;28;20216;-66
2022/04/20 04:00:08;;;;;;;39.30;23.93;;;;;;;4.43;97.39;99463.03;5055563;28;20242;-69
2022/04/20 04:02:35;;;;;;;39.77;24.80;;;;;;;4.53;96.75;99463.72;5055812;28;20250;-65
2022/04/20 04:05:02;;;;;;;47.90;28.57;;;;;;;4.72;96.34;99470.53;5055566;28;20245;-64
2022/04/20 04:07:29;;;;;;;48.80;28.73;;;;;;;5.03;95.24;99463.72;5056254;28;20250;-65
2022/04/20 04:09:56;;;;;;;46.97;26.10;;;;;;;5.38;94.13;99459.00;5055772;28;20257;-67
2022/04/20 04:12:24;;;;;;;38.30;24.00;;;;;;;5.79;90.14;99468.53;5056413;28;20280;-68
2022/04/20 04:14:51;;;;;;;29.27;21.07;;;;;;;6.18;89.66;99465.19;5056040;28;20379;-67
2022/04/20 04:17:18;;;;;;;63.63;22.67;;;;;;;6.63;86.26;99474.13;5055992;28;20702;-66
2022/04/20 04:19:45;;;;;;;32.03;21.70;;;;;;;7.08;84.24;99476.03;5055295;28;20285;-67
2022/04/20 04:22:11;;;;;;;34.13;22.73;;;;;;;7.46;82.52;99488.31;5054671;28;20196;-67
2022/04/20 04:24:40;;;;;;;30.07;22.10;;;;;;;7.66;81.80;99478.91;5055417;28;20250;-66
2022/04/20 04:27:09;;;;;;;32.47;21.30;;;;;;;8.06;79.71;99482.03;5055090;28;20727;-67
2022/04/20 04:29:38;;;;;;;29.70;21.00;;;;;;;8.45;78.04;99490.56;5055186;28;20200;-67
2022/04/20 04:32:05;;;;;;;36.57;22.20;;;;;;;8.91;76.25;99491.19;5054866;28;20200;-67
2022/04/20 04:34:32;;;;;;;33.13;21.57;;;;;;;9.22;73.99;99497.03;5056013;28;20271;-67
2022/04/20 04:36:59;;;;;;;40.33;19.13;;;;;;;9.56;73.40;99502.50;5054798;28;20204;-67
2022/04/20 04:39:28;;;;;;;28.87;18.43;;;;;;;9.96;71.61;99497.34;5055519;28;20626;-65
2022/04/20 04:41:56;;;;;;;24.17;18.20;;;;;;;10.42;69.37;99503.84;5054976;28;20188;-65
2022/04/20 04:44:23;;;;;;;22.23;15.30;;;;;;;10.98;67.90;99509.06;5054773;28;20207;-64
2022/04/20 04:49:35;;;;;;;22.90;13.80;;;;;;;11.35;64.48;99505.91;5051010;28;20227;-65
2022/04/20 04:52:02;;;;;;;19.77;12.50;;;;;;;11.92;72.47;99485.75;5034036;28;20252;-66
2022/04/20 04:54:30;;;;;;;13.07;11.50;;;;;;;12.22;60.29;99521.63;5034178;28;20589;-65
2022/04/20 04:56:56;;;;;;;23.60;11.43;;;;;;;12.28;61.96;99514.63;5034034;28;20206;-65
2022/04/20 04:59:23;;;;;;;14.80;12.00;;;;;;;12.16;59.57;99519.75;5032895;28;20700;-64
2022/04/20 05:01:51;;;;;;;17.23;11.80;;;;;;;12.31;60.07;99515.03;5043769;28;20191;-64
2022/04/20 05:04:19;;;;;;;17.37;11.43;;;;;;;12.33;59.96;99522.84;5052905;28;20205;-64
2022/04/20 05:06:47;;;;;;;11.10;10.10;;;;;;;12.59;58.11;99517.47;5052887;28;20719;-64
2022/04/20 05:09:13;;;;;;;10.03;8.97;;;;;;;12.92;57.14;99523.53;5069853;28;20205;-62
2022/04/20 05:11:40;;;;;;;10.40;8.40;;;;;;;13.29;56.32;99526.28;5073564;28;20264;-67
2022/04/20 05:14:07;;;;;;;9.40;8.43;;;;;;;13.78;56.03;99515.72;5073304;28;20717;-62
2022/04/20 05:16:34;;;;;;;9.20;8.13;;;;;;;14.15;53.16;99522.84;5054039;28;20322;-64
2022/04/20 05:19:02;;;;;;;18.87;9.13;;;;;;;14.32;52.67;99513.28;5044608;28;20231;-65
2022/04/20 05:21:28;;;;;;;12.77;9.63;;;;;;;14.30;52.11;99519.88;5033897;28;20255;-69
2022/04/20 05:23:58;;;;;;;19.70;10.77;;;;;;;14.18;53.71;99513.56;5052440;28;20193;-64
2022/04/20 05:26:25;;;;;;;30.43;12.50;;;;;;;14.64;53.18;99506.78;5051930;28;20569;-64
2022/04/20 05:28:51;;;;;;;25.47;13.07;;;;;;;14.72;52.50;99517.19;5042988;28;20204;-70
2022/04/20 05:31:18;;;;;;;24.37;14.03;;;;;;;15.31;51.21;99514.63;5050258;28;20254;-65
2022/04/20 05:33:45;;;;;;;16.67;13.40;;;;;;;15.31;50.82;99520.00;5039918;28;20267;-64
2022/04/20 05:36:13;;;;;;;13.77;12.37;;;;;;;15.11;51.05;99511.38;5053655;28;20247;-65
2022/04/20 05:44:09;;;;;;;15.70;12.27;;;;;;;14.33;52.87;99480.16;5033370;28;20208;-64
2022/04/20 05:46:36;;;;;;;19.10;12.20;;;;;;;14.55;53.71;99480.56;5033812;28;20198;-63
2022/04/20 05:49:03;;;;;;;13.53;12.10;;;;;;;14.97;51.44;99480.50;5038554;28;20200;-63
2022/04/20 05:51:31;;;;;;;14.73;12.17;;;;;;;15.03;51.80;99500.19;5053046;28;20286;-66
2022/04/20 05:53:58;;;;;;;15.20;12.43;;;;;;;14.87;51.50;99500.78;5051290;28;20193;-64
2022/04/20 05:56:25;;;;;;;15.63;13.27;;;;;;;14.60;52.18;99494.09;5051105;28;20211;-65
2022/04/20 05:58:52;;;;;;;24.07;13.73;;;;;;;14.08;54.89;99495.38;5051040;28;20224;-64
2022/04/20 06:01:20;;;;;;;13.67;12.07;;;;;;;13.67;55.89;99483.56;5047470;28;20189;-64
2022/04/20 06:03:47;;;;;;;22.47;12.90;;;;;;;13.39;56.19;99472.47;5030919;28;20199;-66
2022/04/20 06:06:14;;;;;;;30.83;14.07;;;;;;;13.24;57.52;99470.06;5037829;28;20246;-65
2022/04/20 06:08:42;;;;;;;18.07;14.17;;;;;;;12.97;57.66;99465.91;5053604;28;20246;-64
2022/04/20 06:11:11;;;;;;;27.67;12.13;;;;;;;12.63;59.19;99455.56;5053983;28;20199;-64
2022/04/20 06:13:37;;;;;;;15.20;13.07;;;;;;;12.42;60.42;99449.66;5053387;28;20196;-63
2022/04/20 06:16:06;;;;;;;12.33;11.30;;;;;;;12.29;59.50;99437.19;5052776;28;20263;-65
2022/04/20 06:18:32;;;;;;;33.47;14.70;;;;;;;12.29;60.83;99447.84;5052399;28;20643;-65
2022/04/20 06:20:59;;;;;;;24.43;15.17;;;;;;;11.86;61.70;99425.38;5054001;28;20254;-65
2022/04/20 06:23:26;;;;;;;19.70;13.37;;;;;;;11.63;63.23;99424.16;5035586;28;20277;-68
2022/04/20 06:25:56;;;;;;;19.33;12.50;;;;;;;11.61;63.14;99421.69;5053048;28;20194;-66
2022/04/20 06:28:25;;;;;;;19.23;11.73;;;;;;;11.66;63.60;99411.25;5052968;28;20229;-66
2022/04/20 06:30:53;;;;;;;18.03;12.57;;;;;;;11.58;63.05;99410.59;5060309;28;20252;-66
2022/04/20 06:33:21;;;;;;;48.00;18.37;;;;;;;11.49;64.10;99417.13;5055219;28;20209;-66
2022/04/20 06:35:48;;;;;;;27.27;15.60;;;;;;;11.48;64.60;99416.34;5052416;28;20205;-66
2022/04/20 06:38:15;;;;;;;21.70;14.10;;;;;;;11.54;64.33;99414.69;5054248;28;20248;-66
2022/04/20 06:40:42;;;;;;;28.30;13.13;;;;;;;11.54;64.30;99412.84;5052861;28;20198;-67
2022/04/20 06:43:10;;;;;;;70.03;28.43;;;;;;;11.47;65.22;99413.88;5052836;28;20714;-67
2022/04/20 06:45:37;;;;;;;49.70;16.10;;;;;;;11.48;65.90;99404.88;5035986;28;20279;-67
2022/04/20 06:48:04;;;;;;;16.20;12.07;;;;;;;11.50;65.62;99419.59;5032850;28;20639;-67
2022/04/20 06:50:31;;;;;;;19.83;12.23;;;;;;;11.45;66.32;99424.72;5036289;28;20235;-70
2022/04/20 06:58:35;;;;;;;9.67;8.87;;;;;;;11.22;65.55;99432.25;5032758;28;20651;-67
2022/04/20 07:01:04;;;;;;;10.17;9.20;;;;;;;11.22;65.49;99437.56;5032635;28;20273;-67
2022/04/20 07:03:30;;;;;;;17.70;11.33;;;;;;;11.19;65.71;99437.94;5032558;28;20199;-67
2022/04/20 07:05:57;;;;;;;16.63;10.80;;;;;;;11.21;65.03;99433.25;5033142;28;20195;-66
2022/04/20 07:08:24;;;;;;;16.43;11.10;;;;;;;11.13;66.16;99441.44;5050926;28;20193;-66
2022/04/20 07:10:51;;;;;;;23.43;12.47;;;;;;;11.08;66.97;99439.34;5052726;28;20197;-66
2022/04/20 07:13:19;;;;;;;14.80;11.53;;;;;;;11.03;67.40;99427.72;5052019;28;20198;-67
2022/04/20 07:15:47;;;;;;;14.57;11.40;;;;;;;11.12;67.82;99431.00;5052273;28;20308;-66
2022/04/20 07:18:15;;;;;;;28.87;14.13;;;;;;;11.11;67.66;99430.16;5051878;28;20193;-66
2022/04/20 07:20:42;;;;;;;34.60;12.10;;;;;;;11.07;67.55;99428.13;5052521;28;20190;-64
2022/04/20 07:23:09;;;;;;;12.30;11.13;;;;;;;11.02;68.70;99426.06;5052065;28;20198;-64
2022/04/20 07:25:36;;;;;;;14.43;10.97;;;;;;;11.01;68.55;99429.75;5052419;28;20254;-65
2022/04/20 07:28:03;;;;;;;11.30;10.30;;;;;;;10.92;68.64;99428.28;5051403;28;20225;-66
2022/04/20 07:30:30;;;;;;;15.37;11.30;;;;;;;10.85;69.72;99430.09;5050951;28;20290;-67
2022/04/20 07:32:58;;;;;;;23.63;10.70;;;;;;;10.83;69.19;99438.25;5051503;28;20667;-69
2022/04/20 07:35:25;;;;;;;10.40;9.63;;;;;;;10.79;69.64;99430.91;5052427;28;20194;-66
2022/04/20 07:37:52;;;;;;;17.37;9.93;;;;;;;10.83;69.25;99426.81;5051937;28;20197;-65
2022/04/20 07:40:18;;;;;;;35.20;12.33;;;;;;;10.84;69.88;99423.16;5051284;28;20209;-66
2022/04/20 07:42:45;;;;;;;25.80;11.17;;;;;;;10.90;69.16;99425.00;5051656;28;20251;-67
2022/04/20 07:45:12;;;;;;;14.20;10.57;;;;;;;10.77;70.29;99428.44;5051870;28;20194;-66
2022/04/20 07:47:39;;;;;;;11.83;10.60;;;;;;;10.69;70.74;99419.81;5052388;28;20593;-66
2022/04/20 07:50:19;;;;;;;11.30;10.20;;;;;;;10.64;71.17;99422.25;5051421;28;20213;-66
2022/04/20 07:52:48;;;;;;;13.00;10.90;;;;;;;10.51;71.87;99416.88;5051653;28;20243;-66
2022/04/20 07:55:17;;;;;;;11.87;10.43;;;;;;;10.38;72.67;99407.00;5051414;28;20194;-66
2022/04/20 07:57:45;;;;;;;15.97;11.60;;;;;;;10.23;72.93;99402.84;5051838;28;20262;-65
2022/04/20 08:00:14;;;;;;;12.00;11.10;;;;;;;10.06;74.07;99401.53;5051780;28;20220;-66
2022/04/20 08:02:41;;;;;;;13.07;11.77;;;;;;;10.12;74.24;99411.34;5052293;28;20283;-65
2022/04/20 08:05:10;;;;;;;14.90;13.30;;;;;;;10.08;74.40;99415.41;5051408;28;20665;-66
2022/04/20 08:07:37;;;;;;;14.13;12.73;;;;;;;9.96;74.43;99414.25;5039827;28;20197;-66
2022/04/20 08:10:06;;;;;;;15.00;13.33;;;;;;;9.79;75.36;99420.88;5031424;28;20619;-67
2022/04/20 08:12:37;;;;;;;27.17;13.90;;;;;;;9.84;75.14;99429.06;5031508;28;20690;-68
2022/04/20 08:15:05;;;;;;;14.97;13.37;;;;;;;9.89;75.12;99429.34;5032702;28;20225;-68
2022/04/20 08:17:33;;;;;;;21.20;13.47;;;;;;;9.85;75.71;99422.78;5051361;28;20193;-68
2022/04/20 08:20:00;;;;;;;25.40;15.23;;;;;;;9.72;75.69;99409.44;5051798;28;20290;-67
2022/04/20 08:22:28;;;;;;;17.60;14.00;;;;;;;9.83;76.43;99415.00;5051365;28;20255;-67
2022/04/20 08:24:55;;;;;;;50.07;16.53;;;;;;;9.91;76.12;99412.22;5051179;28;20196;-67
2022/04/20 08:27:22;;;;;;;15.73;14.03;;;;;;;9.91;76.36;99414.03;5051259;28;20681;-67
2022/04/20 08:29:51;;;;;;;16.27;14.10;;;;;;;9.96;76.37;99411.63;5051139;28;20203;-67
2022/04/20 08:32:18;;;;;;;16.33;14.33;;;;;;;10.04;76.73;99408.81;5051753;28;20200;-67
2022/04/20 08:34:45;;;;;;;22.07;17.30;;;;;;;10.04;75.90;99408.81;5051117;28;20196;-67
2022/04/20 08:37:12;;;;;;;18.83;15.73;;;;;;;10.17;75.41;99414.25;5050952;28;20224;-66
2022/04/20 08:39:40;;;;;;;16.60;14.90;;;;;;;10.25;76.05;99422.88;5051901;28;20763;-67
2022/04/20 08:42:11;;;;;;;20.00;15.77;;;;;;;10.33;75.32;99424.53;5054953;28;20196;-67
2022/04/20 08:44:44;;;;;;;24.70;17.03;;;;;;;10.17;75.41;99424.88;5055626;28;20272;-67
2022/04/20 08:47:16;;;;;;;17.30;15.63;;;;;;;10.20;76.43;99435.06;5055477;28;20184;-67
2022/04/20 08:49:43;;;;;;;23.97;19.40;;;;;;;10.07;77.07;99419.06;5054703;28;20246;-67
2022/04/20 08:54:57;;;;;;;18.23;14.97;;;;;;;10.27;76.37;99409.41;5055068;28;20243;-66
2022/04/20 08:57:25;;;;;;;16.20;14.57;;;;;;;10.25;76.67;99411.44;5055222;28;20192;-67
2022/04/20 08:59:54;;;;;;;16.47;14.80;;;;;;;10.18;77.02;99407.94;5054447;28;20227;-67
2022/04/20 09:02:24;;;;;;;16.03;14.57;;;;;;;10.22;77.63;99401.22;5054530;28;20745;-67
2022/04/20 09:04:51;;;;;;;16.83;15.23;;;;;;;10.18;78.41;99386.69;5054296;28;20655;-67
2022/04/20 09:07:18;;;;;;;16.20;14.60;;;;;;;10.23;77.70;99397.53;5054336;28;20625;-67
2022/04/20 09:09:46;;;;;;;17.80;16.00;;;;;;;10.27;76.72;99404.94;5054402;28;20229;-67
2022/04/20 09:12:17;;;;;;;18.00;16.20;;;;;;;10.22;77.36;99403.88;5054659;28;20199;-67
2022/04/20 09:14:48;;;;;;;17.40;15.70;;;;;;;10.19;78.07;99401.59;5051673;28;20248;-67
2022/04/20 09:17:17;;;;;;;19.53;16.37;;;;;;;10.16;77.47;99408.13;5053948;28;20246;-66
2022/04/20 09:19:44;;;;;;;19.20;17.30;;;;;;;10.12;79.68;99400.72;5053913;28;20717;-66
2022/04/20 09:22:19;;;;;;;20.33;17.77;;;;;;;10.00;79.74;99396.94;5052861;28;20196;-68
2022/04/20 09:25:03;;;;;;;21.37;18.00;;;;;;;9.89;79.27;99403.59;5052576;28;20727;-66
2022/04/20 09:27:33;;;;;;;21.00;18.17;;;;;;;9.85;79.72;99404.22;5052670;28;20242;-69
2022/04/20 09:30:00;;;;;;;20.30;18.30;;;;;;;9.84;80.45;99397.25;5052939;28;20662;-67
2022/04/20 09:32:31;;;;;;;31.20;22.60;;;;;;;9.84;80.86;99389.28;5052599;28;20744;-67
2022/04/20 09:34:59;;;;;;;34.63;25.77;;;;;;;9.96;80.54;99391.22;5051901;28;20197;-66
2022/04/20 09:37:27;;;;;;;114.77;55.90;;;;;;;10.03;77.81;99385.94;5033992;28;20194;-67
2022/04/20 09:39:53;;;;;;;28.30;21.27;;;;;;;9.97;77.23;99382.25;5033892;28;20221;-67
2022/04/20 09:42:21;;;;;;;21.60;18.27;;;;;;;9.98;77.95;99380.41;5052949;28;20253;-68
2022/04/20 09:45:01;;;;;;;20.50;18.33;;;;;;;9.91;78.02;99382.19;5053586;28;20188;-67
2022/04/20 09:50:19;;;;;;;24.67;17.87;;;;;;;9.83;79.25;99374.38;5053574;28;20253;-68
2022/04/20 09:52:48;;;;;;;27.23;23.87;;;;;;;9.79;78.52;99367.84;5053123;28;20184;-67
2022/04/20 09:55:18;;;;;;;26.17;18.63;;;;;;;9.83;79.04;99366.44;5052405;28;20250;-73
2022/04/20 09:57:45;;;;;;;21.67;19.47;;;;;;;9.90;77.97;99370.78;5053785;28;20185;-67
2022/04/20 10:00:15;;;;;;;19.90;17.90;;;;;;;9.93;77.57;99366.91;5052199;28;20220;-67
2022/04/20 10:02:46;;;;;;;21.63;18.50;;;;;;;10.04;76.30;99361.03;5052919;28;20198;-67
2022/04/20 10:05:13;;;;;;;20.70;17.70;;;;;;;10.08;75.68;99364.97;5052569;28;20200;-67
2022/04/20 10:07:40;;;;;;;28.00;18.07;;;;;;;10.03;75.88;99354.94;5040712;28;20243;-67
2022/04/20 10:10:09;;;;;;;22.80;18.47;;;;;;;9.98;77.38;99340.63;5033279;28;20271;-66
2022/04/20 10:12:38;;;;;;;21.23;18.57;;;;;;;9.96;77.07;99347.94;5033578;28;20201;-67
2022/04/20 10:17:56;;;;;;;21.67;19.37;;;;;;;9.95;77.33;99333.03;5053092;28;20739;-67
2022/04/20 10:20:25;;;;;;;24.93;19.80;;;;;;;9.97;78.52;99323.06;5051434;28;20294;-68
2022/04/20 10:22:52;;;;;;;23.00;19.23;;;;;;;9.98;77.61;99316.75;5051171;28;20193;-66
2022/04/20 10:25:19;;;;;;;21.63;18.10;;;;;;;10.11;78.18;99304.38;5051402;28;20579;-70
2022/04/20 10:27:56;;;;;;;22.23;18.27;;;;;;;10.35;77.61;99314.50;5050777;28;20196;-68
2022/04/20 10:30:31;;;;;;;20.83;18.00;;;;;;;10.42;75.68;99311.88;5049936;28;20639;-68
2022/04/20 10:33:06;;;;;;;20.73;18.57;;;;;;;10.43;76.43;99316.16;5050815;28;20189;-68
2022/04/20 10:35:53;;;;;;;30.00;23.73;;;;;;;10.44;76.30;99312.47;5050898;28;20254;-67
2022/04/20 10:38:20;;;;;;;23.90;19.70;;;;;;;10.38;77.17;99308.75;5052982;28;20271;-68
2022/04/20 10:40:57;;;;;;;21.77;18.80;;;;;;;10.41;75.58;99307.53;5051981;28;20281;-69
2022/04/20 10:43:25;;;;;;;24.00;20.90;;;;;;;10.48;75.90;99301.25;5052157;28;20192;-69
2022/04/20 10:46:11;;;;;;;29.93;21.67;;;;;;;10.52;76.36;99301.66;5051688;28;20674;-68
2022/04/20 10:48:55;;;;;;;24.67;20.20;;;;;;;10.50;75.76;99301.06;5052400;28;20680;-68
2022/04/20 10:51:24;;;;;;;25.10;20.40;;;;;;;10.52;76.52;99302.50;5052888;28;20195;-67
2022/04/20 10:53:51;;;;;;;29.90;19.33;;;;;;;10.48;75.84;99300.44;5052455;28;20190;-66
2022/04/20 10:56:20;;;;;;;35.97;19.97;;;;;;;10.51;77.09;99294.72;5051975;28;20676;-66
2022/04/20 10:59:07;;;;;;;30.83;20.87;;;;;;;10.63;75.95;99287.81;5052007;28;20189;-66
2022/04/20 11:02:06;;;;;;;35.30;21.87;;;;;;;10.80;75.16;99278.44;5047034;28;20331;-70
2022/04/20 11:04:37;;;;;;;33.17;23.03;;;;;;;10.86;75.20;99272.28;5051520;28;20743;-68
2022/04/20 11:07:26;;;;;;;24.90;21.20;;;;;;;10.91;73.78;99269.88;5051170;28;20185;-67
2022/04/20 11:10:06;;;;;;;29.00;22.77;;;;;;;10.91;74.81;99259.25;5048225;28;20205;-66
2022/04/20 11:18:39;;;;;;;21.63;19.37;;;;;;;11.19;72.35;99243.09;5051724;28;20326;-65
2022/04/20 11:21:23;;;;;;;39.83;25.40;;;;;;;11.20;71.54;99242.88;5052042;28;20205;-65
2022/04/20 11:23:51;;;;;;;38.17;23.87;;;;;;;11.25;71.09;99235.09;5052609;28;20194;-65
2022/04/20 11:26:20;;;;;;;21.30;19.20;;;;;;;11.39;70.50;99238.56;5052175;28;20284;-65
2022/04/20 11:28:48;;;;;;;22.93;18.17;;;;;;;11.38;69.94;99235.06;5051686;28;20286;-66
2022/04/20 11:31:15;;;;;;;18.33;16.43;;;;;;;11.54;68.94;99234.63;5050252;28;20311;-66
2022/04/20 11:33:42;;;;;;;22.20;16.93;;;;;;;11.77;67.72;99227.03;5051896;28;20280;-66
2022/04/20 11:36:12;;;;;;;18.37;16.30;;;;;;;11.96;67.00;99228.78;5051410;28;20203;-67
2022/04/20 11:38:42;;;;;;;19.00;14.43;;;;;;;12.09;65.80;99219.94;5051145;28;20210;-70
2022/04/20 11:41:10;;;;;;;18.30;14.40;;;;;;;12.17;64.32;99228.50;5051769;28;20227;-67
2022/04/20 11:43:37;;;;;;;20.20;15.20;;;;;;;12.26;65.11;99219.25;5051471;28;20679;-66
2022/04/20 11:46:04;;;;;;;17.50;15.27;;;;;;;12.35;64.47;99215.28;5051785;28;20197;-67
2022/04/20 11:48:32;;;;;;;19.10;15.67;;;;;;;12.37;64.10;99218.53;5051175;28;20233;-67
2022/04/20 11:51:00;;;;;;;16.70;14.93;;;;;;;12.37;63.86;99215.88;5051786;28;20288;-67
2022/04/20 11:53:35;;;;;;;18.30;13.70;;;;;;;12.22;63.94;99194.06;5050349;28;20261;-66
2022/04/20 11:56:05;;;;;;;15.53;13.93;;;;;;;12.15;63.80;99201.28;5050989;28;20198;-66
2022/04/20 11:58:32;;;;;;;18.13;14.10;;;;;;;12.17;64.69;99193.88;5051159;28;20202;-68
2022/04/20 12:01:03;;;;;;;21.13;15.50;;;;;;;12.30;64.25;99183.16;5051051;28;20227;-66